createdAt,value
2018-12-12T00:02:23.231Z,2.90
2018-12-12T00:04:50.792Z,2.90
2018-12-12T00:07:18.483Z,2.90
2018-12-12T00:09:45.985Z,2.90
2018-12-12T00:12:13.492Z,2.80
2018-12-12T00:14:40.987Z,2.70
2018-12-12T00:17:08.535Z,2.80
2018-12-12T00:19:36.020Z,2.80
2018-12-12T00:22:04.172Z,2.70
2018-12-12T00:24:31.676Z,2.70
2018-12-12T00:26:59.175Z,2.70
2018-12-12T00:29:26.824Z,2.70
2018-12-12T00:31:54.300Z,2.70
2018-12-12T00:34:21.781Z,2.60
2018-12-12T00:36:49.392Z,2.50
2018-12-12T00:39:17.091Z,2.60
2018-12-12T00:41:44.573Z,2.60
2018-12-12T00:44:12.107Z,2.50
2018-12-12T00:46:39.664Z,2.30
2018-12-12T00:49:07.871Z,2.20
2018-12-12T00:51:35.839Z,2.20
2018-12-12T00:54:03.394Z,2.20
2018-12-12T00:56:30.888Z,2.20
2018-12-12T00:58:58.417Z,2.20
2018-12-12T01:01:25.895Z,2.10
2018-12-12T01:03:53.375Z,2.10
2018-12-12T01:06:20.960Z,2.10
2018-12-12T01:08:48.458Z,2.10
2018-12-12T01:14:25.916Z,2.10
2018-12-12T01:16:53.522Z,2.10
2018-12-12T01:19:21.169Z,2.10
2018-12-12T01:21:48.707Z,2.00
2018-12-12T01:24:16.216Z,1.90
2018-12-12T01:26:43.721Z,1.90
2018-12-12T01:29:11.279Z,1.90
2018-12-12T01:31:38.779Z,1.90
2018-12-12T01:34:06.267Z,2.00
2018-12-12T01:36:33.752Z,2.00
2018-12-12T01:39:01.280Z,2.00
2018-12-12T01:41:28.775Z,1.90
2018-12-12T01:43:56.260Z,1.90
2018-12-12T01:46:23.771Z,1.90
2018-12-12T01:48:51.275Z,1.90
2018-12-12T01:51:18.769Z,1.90
2018-12-12T01:53:48.095Z,1.90
2018-12-12T01:56:15.600Z,1.80
2018-12-12T01:58:43.091Z,1.90
2018-12-12T02:01:10.619Z,1.90
2018-12-12T02:03:38.137Z,1.90
2018-12-12T02:06:05.634Z,1.80
2018-12-12T02:08:33.172Z,1.80
2018-12-12T02:11:00.661Z,1.80
2018-12-12T02:13:35.747Z,1.80
2018-12-12T02:16:05.905Z,1.90
2018-12-12T02:18:33.804Z,1.80
2018-12-12T02:21:01.355Z,1.80
2018-12-12T02:23:28.844Z,1.80
2018-12-12T02:25:56.315Z,1.80
2018-12-12T02:28:23.826Z,1.80
2018-12-12T02:30:51.315Z,1.80
2018-12-12T02:33:18.796Z,1.70
2018-12-12T02:35:46.571Z,1.70
2018-12-12T02:38:14.057Z,1.80
2018-12-12T02:40:41.639Z,1.80
2018-12-12T02:43:09.230Z,1.80
2018-12-12T02:45:36.717Z,1.70
2018-12-12T02:48:04.268Z,1.70
2018-12-12T02:50:31.775Z,1.70
2018-12-12T02:52:59.268Z,1.70
2018-12-12T02:55:26.864Z,1.70
2018-12-12T02:57:54.393Z,1.60
2018-12-12T03:00:21.883Z,1.60
2018-12-12T03:02:49.373Z,1.60
2018-12-12T03:05:16.880Z,1.60
2018-12-12T03:07:45.269Z,1.60
2018-12-12T03:10:12.756Z,1.60
2018-12-12T03:12:40.337Z,1.60
2018-12-12T03:15:07.954Z,1.60
2018-12-12T03:17:35.447Z,1.50
2018-12-12T03:20:03.580Z,1.60
2018-12-12T03:22:31.071Z,1.50
2018-12-12T03:24:58.547Z,1.50
2018-12-12T03:27:26.074Z,1.50
2018-12-12T03:29:53.827Z,1.40
2018-12-12T03:32:21.384Z,1.40
2018-12-12T03:34:49.014Z,1.40
2018-12-12T03:37:16.503Z,1.40
2018-12-12T03:39:43.977Z,1.40
2018-12-12T03:42:11.499Z,1.50
2018-12-12T03:44:39.023Z,1.40
2018-12-12T03:47:06.498Z,1.50
2018-12-12T03:49:34.019Z,1.40
2018-12-12T03:52:01.501Z,1.40
2018-12-12T03:54:29.072Z,1.30
2018-12-12T03:56:56.696Z,1.30
2018-12-12T03:59:24.170Z,1.30
2018-12-12T04:01:51.664Z,1.30
2018-12-12T04:04:19.210Z,1.30
2018-12-12T04:06:46.699Z,1.30
2018-12-12T04:09:14.189Z,1.20
2018-12-12T04:11:41.695Z,1.20
2018-12-12T04:14:09.194Z,1.20
2018-12-12T04:16:36.700Z,1.20
2018-12-12T04:19:04.675Z,1.20
2018-12-12T04:21:32.207Z,1.20
2018-12-12T04:23:59.691Z,1.20
2018-12-12T04:26:27.204Z,1.10
2018-12-12T04:28:54.748Z,1.10
2018-12-12T04:31:22.259Z,1.10
2018-12-12T04:33:49.761Z,1.10
2018-12-12T04:36:17.270Z,1.00
2018-12-12T04:38:44.772Z,1.10
2018-12-12T04:41:12.275Z,1.00
2018-12-12T04:43:39.801Z,1.00
2018-12-12T04:46:07.388Z,1.00
2018-12-12T04:48:34.909Z,1.00
2018-12-12T04:51:02.387Z,1.00
2018-12-12T04:53:29.867Z,1.00
2018-12-12T04:55:57.385Z,1.00
2018-12-12T04:58:24.915Z,0.90
2018-12-12T05:00:52.409Z,0.80
2018-12-12T05:03:19.931Z,0.80
2018-12-12T05:05:47.412Z,0.80
2018-12-12T05:08:14.961Z,0.90
2018-12-12T05:10:42.537Z,0.90
2018-12-12T05:13:10.058Z,0.80
2018-12-12T05:15:37.544Z,0.80
2018-12-12T05:18:05.182Z,0.80
2018-12-12T05:20:32.675Z,0.80
2018-12-12T05:23:00.162Z,0.70
2018-12-12T05:25:27.676Z,0.70
2018-12-12T05:27:55.171Z,0.70
2018-12-12T05:30:22.668Z,0.80
2018-12-12T05:32:50.192Z,0.80
2018-12-12T05:35:17.687Z,0.80
2018-12-12T05:37:49.841Z,0.80
2018-12-12T05:40:14.919Z,0.80
2018-12-12T05:42:43.743Z,0.80
2018-12-12T05:45:11.223Z,0.80
2018-12-12T05:47:38.755Z,0.80
2018-12-12T05:50:06.307Z,0.70
2018-12-12T05:52:34.284Z,0.70
2018-12-12T05:55:01.804Z,0.70
2018-12-12T05:57:29.400Z,0.70
2018-12-12T05:59:56.887Z,0.70
2018-12-12T06:02:24.399Z,0.70
2018-12-12T06:04:51.899Z,0.80
2018-12-12T06:07:19.418Z,0.80
2018-12-12T06:09:46.940Z,0.70
2018-12-12T06:12:14.439Z,0.70
2018-12-12T06:14:41.956Z,0.80
2018-12-12T06:17:09.532Z,0.80
2018-12-12T06:19:37.027Z,0.80
2018-12-12T06:22:04.544Z,0.90
2018-12-12T06:24:32.049Z,0.90
2018-12-12T06:26:59.544Z,0.80
2018-12-12T06:29:27.072Z,0.80
2018-12-12T06:31:54.608Z,0.70
2018-12-12T06:34:22.091Z,0.60
2018-12-12T06:36:49.663Z,0.60
2018-12-12T06:39:17.267Z,0.50
2018-12-12T06:41:44.808Z,0.70
2018-12-12T06:44:12.384Z,0.70
2018-12-12T06:46:39.907Z,0.70
2018-12-12T06:49:07.449Z,0.90
2018-12-12T06:51:34.984Z,0.90
2018-12-12T06:54:02.508Z,1.00
2018-12-12T06:56:30.004Z,1.00
2018-12-12T06:58:57.507Z,1.00
2018-12-12T07:01:25.072Z,1.00
2018-12-12T07:03:52.623Z,1.00
2018-12-12T07:06:20.120Z,1.00
2018-12-12T07:08:47.676Z,1.10
2018-12-12T07:11:15.204Z,1.10
2018-12-12T07:13:42.747Z,1.00
2018-12-12T07:16:10.241Z,1.00
2018-12-12T07:18:37.766Z,1.00
2018-12-12T07:21:05.348Z,1.10
2018-12-12T07:23:32.835Z,1.10
2018-12-12T07:26:00.357Z,1.10
2018-12-12T07:28:27.887Z,1.30
2018-12-12T07:30:55.376Z,1.40
2018-12-12T07:33:22.872Z,1.30
2018-12-12T07:35:50.371Z,1.30
2018-12-12T07:38:17.858Z,1.30
2018-12-12T07:40:45.446Z,1.30
2018-12-12T07:43:12.959Z,1.30
2018-12-12T07:45:40.450Z,1.30
2018-12-12T07:48:07.928Z,1.30
2018-12-12T07:50:35.520Z,1.30
2018-12-12T07:53:03.015Z,1.40
2018-12-12T07:55:30.500Z,1.40
2018-12-12T07:57:58.010Z,1.40
2018-12-12T08:00:25.625Z,1.40
2018-12-12T08:02:53.147Z,1.40
2018-12-12T08:05:21.152Z,1.50
2018-12-12T08:07:48.637Z,1.50
2018-12-12T08:10:16.164Z,1.50
2018-12-12T08:12:43.671Z,1.60
2018-12-12T08:15:11.195Z,1.60
2018-12-12T08:17:38.703Z,1.60
2018-12-12T08:20:06.319Z,1.60
2018-12-12T08:22:33.880Z,1.60
2018-12-12T08:25:01.407Z,1.70
2018-12-12T08:27:28.895Z,1.70
2018-12-12T08:29:57.152Z,1.80
2018-12-12T08:32:24.724Z,1.80
2018-12-12T08:34:52.215Z,1.90
2018-12-12T08:37:19.707Z,2.00
2018-12-12T08:39:47.215Z,2.00
2018-12-12T08:42:14.703Z,2.00
2018-12-12T08:44:42.224Z,2.10
2018-12-12T08:47:09.735Z,2.10
2018-12-12T08:49:37.249Z,2.00
2018-12-12T08:52:04.831Z,2.10
2018-12-12T08:54:32.319Z,2.10
2018-12-12T08:56:59.979Z,2.20
2018-12-12T08:59:27.526Z,2.20
2018-12-12T09:01:55.026Z,2.30
2018-12-12T09:04:22.582Z,2.20
2018-12-12T09:06:50.199Z,2.20
2018-12-12T09:09:17.716Z,2.20
2018-12-12T09:11:45.388Z,2.30
2018-12-12T09:14:12.911Z,2.30
2018-12-12T09:16:40.446Z,2.40
2018-12-12T09:19:07.939Z,2.40
2018-12-12T09:21:35.872Z,2.50
2018-12-12T09:24:03.572Z,2.50
2018-12-12T09:26:31.067Z,2.50
2018-12-12T09:28:58.587Z,2.60
2018-12-12T09:31:26.084Z,2.60
2018-12-12T09:33:53.582Z,2.60
2018-12-12T09:36:21.094Z,2.60
2018-12-12T09:38:48.600Z,2.70
2018-12-12T09:41:16.655Z,2.80
2018-12-12T09:43:44.180Z,2.90
2018-12-12T09:46:11.689Z,2.90
2018-12-12T09:48:39.236Z,2.90
2018-12-12T09:51:07.509Z,3.00
2018-12-12T09:53:35.379Z,3.00
2018-12-12T09:56:02.880Z,3.00
2018-12-12T09:58:30.383Z,3.00
2018-12-12T10:00:57.875Z,3.10
2018-12-12T10:03:30.966Z,3.20
2018-12-12T10:05:54.906Z,3.10
2018-12-12T10:08:22.388Z,3.20
2018-12-12T10:10:49.875Z,3.30
2018-12-12T10:13:18.130Z,3.40
2018-12-12T10:15:45.711Z,3.50
2018-12-12T10:18:13.307Z,3.50
2018-12-12T10:20:40.824Z,3.50
2018-12-12T10:23:08.329Z,3.50
2018-12-12T10:25:35.820Z,3.60
2018-12-12T10:28:03.400Z,3.60
2018-12-12T10:30:30.904Z,3.70
2018-12-12T10:32:58.402Z,3.80
2018-12-12T10:35:25.910Z,3.80
2018-12-12T10:37:53.399Z,3.80
2018-12-12T10:40:20.883Z,3.90
2018-12-12T10:42:48.456Z,3.90
2018-12-12T10:45:15.947Z,4.00
2018-12-12T10:47:43.518Z,4.00
2018-12-12T10:50:11.024Z,4.10
2018-12-12T10:52:38.515Z,4.10
2018-12-12T10:55:06.166Z,4.10
2018-12-12T10:57:33.673Z,4.20
2018-12-12T11:00:01.223Z,4.30
2018-12-12T11:02:31.341Z,4.30
2018-12-12T11:04:58.915Z,4.40
2018-12-12T11:07:26.488Z,4.50
2018-12-12T11:09:53.983Z,4.50
2018-12-12T11:12:21.503Z,4.40
2018-12-12T11:14:49.042Z,4.50
2018-12-12T11:17:16.961Z,4.60
2018-12-12T11:19:44.480Z,4.80
2018-12-12T11:22:12.023Z,4.90
2018-12-12T11:24:39.519Z,5.10
2018-12-12T11:27:07.022Z,5.40
2018-12-12T11:29:34.604Z,5.40
2018-12-12T11:32:02.158Z,5.40
2018-12-12T11:34:29.988Z,5.20
2018-12-12T11:36:57.490Z,5.10
2018-12-12T11:39:25.005Z,5.00
2018-12-12T11:41:52.512Z,5.00
2018-12-12T11:44:20.087Z,5.10
2018-12-12T11:46:47.587Z,5.20
2018-12-12T11:49:15.087Z,5.20
2018-12-12T11:51:42.580Z,5.20
2018-12-12T11:54:10.111Z,5.10
2018-12-12T11:56:37.599Z,5.10
2018-12-12T11:59:05.084Z,5.10
2018-12-12T12:01:32.591Z,5.10
2018-12-12T12:04:00.080Z,5.00
2018-12-12T12:06:27.615Z,5.10
2018-12-12T12:08:55.155Z,5.00
2018-12-12T12:11:22.644Z,5.10
2018-12-12T12:13:50.142Z,5.20
2018-12-12T12:16:17.647Z,5.10
2018-12-12T12:18:45.177Z,5.10
2018-12-12T12:21:12.672Z,5.20
2018-12-12T12:23:40.179Z,5.20
2018-12-12T12:26:07.664Z,5.20
2018-12-12T12:28:35.259Z,5.30
2018-12-12T12:31:02.780Z,5.20
2018-12-12T12:33:30.284Z,5.20
2018-12-12T12:35:57.795Z,5.20
2018-12-12T12:38:25.442Z,5.20
2018-12-12T12:40:52.952Z,5.30
2018-12-12T12:43:20.523Z,5.40
2018-12-12T12:45:48.003Z,5.50
2018-12-12T12:48:15.491Z,5.50
2018-12-12T12:50:44.162Z,5.40
2018-12-12T12:53:11.941Z,5.30
2018-12-12T12:55:39.619Z,5.40
2018-12-12T12:58:07.152Z,5.40
2018-12-12T13:00:34.648Z,5.40
2018-12-12T13:03:02.128Z,5.40
2018-12-12T13:05:29.655Z,5.30
2018-12-12T13:07:57.156Z,5.30
2018-12-12T13:10:24.647Z,5.40
2018-12-12T13:12:52.427Z,5.40
2018-12-12T13:15:20.053Z,5.30
2018-12-12T13:17:47.623Z,5.30
2018-12-12T13:20:15.147Z,5.20
2018-12-12T13:22:42.631Z,5.20
2018-12-12T13:25:10.135Z,5.20
2018-12-12T13:27:37.695Z,5.10
2018-12-12T13:30:05.237Z,5.10
2018-12-12T13:32:32.750Z,5.10
2018-12-12T13:35:00.274Z,5.10
2018-12-12T13:37:27.764Z,5.10
2018-12-12T13:39:55.256Z,5.10
2018-12-12T13:42:22.783Z,5.10
2018-12-12T13:44:50.271Z,5.10
2018-12-12T13:47:17.752Z,5.10
2018-12-12T13:49:45.263Z,5.20
2018-12-12T13:52:12.747Z,5.20
2018-12-12T13:54:40.236Z,5.20
2018-12-12T13:57:07.836Z,5.20
2018-12-12T13:59:35.318Z,5.10
2018-12-12T14:02:02.809Z,5.10
2018-12-12T14:04:30.320Z,5.10
2018-12-12T14:06:57.811Z,5.10
2018-12-12T14:09:26.353Z,5.10
2018-12-12T14:11:54.236Z,5.10
2018-12-12T14:14:21.743Z,5.10
2018-12-12T14:16:49.231Z,5.00
2018-12-12T14:19:16.755Z,5.00
2018-12-12T14:21:44.240Z,5.00
2018-12-12T14:24:11.787Z,4.90
2018-12-12T14:26:39.378Z,4.90
2018-12-12T14:29:06.861Z,4.90
2018-12-12T14:31:34.348Z,4.90
2018-12-12T14:34:01.857Z,5.00
2018-12-12T14:36:29.362Z,5.00
2018-12-12T14:38:56.880Z,4.90
2018-12-12T14:41:24.449Z,4.90
2018-12-12T14:43:51.942Z,4.90
2018-12-12T14:46:19.444Z,4.90
2018-12-12T14:48:46.964Z,4.90
2018-12-12T14:51:14.459Z,4.90
2018-12-12T14:53:41.943Z,4.90
2018-12-12T14:56:09.456Z,4.90
2018-12-12T14:58:36.936Z,4.90
2018-12-12T15:01:04.430Z,4.90
2018-12-12T15:03:31.960Z,4.90
2018-12-12T15:05:59.448Z,4.90
2018-12-12T15:08:26.979Z,4.90
2018-12-12T15:10:54.483Z,4.90
2018-12-12T15:13:21.996Z,4.90
2018-12-12T15:15:49.490Z,4.80
2018-12-12T15:18:18.368Z,4.80
2018-12-12T15:20:46.171Z,4.80
2018-12-12T15:23:14.239Z,4.80
2018-12-12T15:25:41.720Z,4.80
2018-12-12T15:28:09.232Z,4.80
2018-12-12T15:30:36.712Z,4.70
2018-12-12T15:33:04.221Z,4.80
2018-12-12T15:35:31.699Z,4.80
2018-12-12T15:37:59.195Z,4.70
2018-12-12T15:40:26.711Z,4.70
2018-12-12T15:42:54.196Z,4.70
2018-12-12T15:45:21.671Z,4.70
2018-12-12T15:47:49.194Z,4.70
2018-12-12T15:50:17.547Z,4.70
2018-12-12T15:52:45.042Z,4.70
2018-12-12T15:55:12.543Z,4.70
2018-12-12T15:57:40.059Z,4.80
2018-12-12T16:00:07.704Z,4.70
2018-12-12T16:02:35.201Z,4.70
2018-12-12T16:05:02.790Z,4.70
2018-12-12T16:07:30.283Z,4.70
2018-12-12T16:09:57.768Z,4.70
2018-12-12T16:12:25.371Z,4.70
2018-12-12T16:14:52.858Z,4.70
2018-12-12T16:17:20.397Z,4.70
2018-12-12T16:19:48.056Z,4.70
2018-12-12T16:22:15.570Z,4.70
2018-12-12T16:24:43.051Z,4.70
2018-12-12T16:27:10.580Z,4.70
2018-12-12T16:29:38.068Z,4.70
2018-12-12T16:32:05.554Z,4.70
2018-12-12T16:34:33.063Z,4.70
2018-12-12T16:37:00.623Z,4.70
2018-12-12T16:39:28.108Z,4.70
2018-12-12T16:41:55.669Z,4.70
2018-12-12T16:44:23.161Z,4.60
2018-12-12T16:46:50.646Z,4.60
2018-12-12T16:49:18.168Z,4.50
2018-12-12T16:51:46.077Z,4.60
2018-12-12T16:54:13.574Z,4.60
2018-12-12T16:56:41.094Z,4.50
2018-12-12T16:59:08.599Z,4.50
2018-12-12T17:01:36.183Z,4.50
2018-12-12T17:04:03.706Z,4.50
2018-12-12T17:06:31.252Z,4.50
2018-12-12T17:08:58.776Z,4.50
2018-12-12T17:11:26.299Z,4.50
2018-12-12T17:13:53.790Z,4.50
2018-12-12T17:16:21.259Z,4.50
2018-12-12T17:18:48.768Z,4.50
2018-12-12T17:21:16.271Z,4.50
2018-12-12T17:23:43.816Z,4.50
2018-12-12T17:26:11.354Z,4.50
2018-12-12T17:28:38.840Z,4.50
2018-12-12T17:31:06.355Z,4.40
2018-12-12T17:33:33.866Z,4.50
2018-12-12T17:36:01.354Z,4.40
2018-12-12T17:38:28.847Z,4.40
2018-12-12T17:40:56.396Z,4.40
2018-12-12T17:43:23.897Z,4.40
2018-12-12T17:45:52.087Z,4.40
2018-12-12T17:48:19.720Z,4.40
2018-12-12T17:50:47.200Z,4.40
2018-12-12T17:53:14.732Z,4.40
2018-12-12T17:55:42.255Z,4.40
2018-12-12T17:58:09.762Z,4.30
2018-12-12T18:00:37.332Z,4.30
2018-12-12T18:03:04.831Z,4.40
2018-12-12T18:05:32.327Z,4.40
2018-12-12T18:07:59.827Z,4.60
2018-12-12T18:10:27.408Z,4.70
2018-12-12T18:12:54.897Z,4.70
2018-12-12T18:15:22.396Z,4.60
2018-12-12T18:17:49.939Z,4.60
2018-12-12T18:20:18.161Z,4.60
2018-12-12T18:22:45.675Z,4.60
2018-12-12T18:25:13.159Z,4.60
2018-12-12T18:27:40.643Z,4.60
2018-12-12T18:30:08.290Z,4.60
2018-12-12T18:32:36.748Z,4.60
2018-12-12T18:35:04.560Z,4.60
2018-12-12T18:37:32.079Z,4.60
2018-12-12T18:39:59.585Z,4.60
2018-12-12T18:42:27.107Z,4.60
2018-12-12T18:44:54.648Z,4.60
2018-12-12T18:47:22.161Z,4.60
2018-12-12T18:49:49.641Z,4.60
2018-12-12T18:52:17.911Z,4.50
2018-12-12T18:54:45.404Z,4.50
2018-12-12T18:57:12.900Z,4.40
2018-12-12T18:59:40.400Z,4.40
2018-12-12T19:02:07.937Z,4.40
2018-12-12T19:04:36.072Z,4.50
2018-12-12T19:07:04.308Z,4.50
2018-12-12T19:09:31.884Z,4.50
2018-12-12T19:11:59.370Z,4.50
2018-12-12T19:14:26.921Z,4.40
2018-12-12T19:16:54.492Z,4.40
2018-12-12T19:19:21.999Z,4.40
2018-12-12T19:21:49.488Z,4.30
2018-12-12T19:24:16.975Z,4.40
2018-12-12T19:26:44.504Z,4.40
2018-12-12T19:29:11.993Z,4.30
2018-12-12T19:31:39.500Z,4.30
2018-12-12T19:34:07.019Z,4.30
2018-12-12T19:36:34.501Z,4.30
2018-12-12T19:39:02.029Z,4.30
2018-12-12T19:41:29.527Z,4.30
2018-12-12T19:43:57.076Z,4.30
2018-12-12T19:46:29.243Z,4.30
2018-12-12T19:49:00.669Z,4.20
2018-12-12T19:51:29.831Z,4.20
2018-12-12T19:53:57.356Z,4.20
2018-12-12T19:56:24.915Z,4.20
2018-12-12T19:58:52.400Z,4.20
2018-12-12T20:01:19.898Z,4.20
2018-12-12T20:03:47.419Z,4.20
2018-12-12T20:06:14.910Z,4.10
2018-12-12T20:08:42.404Z,4.10
2018-12-12T20:11:09.985Z,4.10
2018-12-12T20:13:38.383Z,4.10
2018-12-12T20:16:06.000Z,4.10
2018-12-12T20:18:33.640Z,4.10
2018-12-12T20:21:01.114Z,4.10
2018-12-12T20:23:28.682Z,4.00
2018-12-12T20:25:56.323Z,4.00
2018-12-12T20:28:23.824Z,4.00
2018-12-12T20:30:51.381Z,3.90
2018-12-12T20:33:18.913Z,3.80
2018-12-12T20:35:48.163Z,3.80
2018-12-12T20:38:15.922Z,3.80
2018-12-12T20:40:43.427Z,3.80
2018-12-12T20:43:11.000Z,3.70
2018-12-12T20:45:38.947Z,3.70
2018-12-12T20:48:06.460Z,3.60
2018-12-12T20:50:34.005Z,3.60
2018-12-12T20:53:01.768Z,3.60
2018-12-12T20:55:29.322Z,3.50
2018-12-12T20:57:56.851Z,3.50
2018-12-12T21:00:24.363Z,3.50
2018-12-12T21:02:51.880Z,3.40
2018-12-12T21:05:19.447Z,3.40
2018-12-12T21:07:46.936Z,3.40
2018-12-12T21:10:14.425Z,3.30
2018-12-12T21:12:41.964Z,3.30
2018-12-12T21:15:09.533Z,3.30
2018-12-12T21:17:37.083Z,3.30
2018-12-12T21:20:06.628Z,3.30
2018-12-12T21:22:35.045Z,3.30
2018-12-12T21:25:02.561Z,3.20
2018-12-12T21:27:30.085Z,3.20
2018-12-12T21:29:57.594Z,3.20
2018-12-12T21:32:25.142Z,3.20
2018-12-12T21:34:52.655Z,3.10
2018-12-12T21:37:20.181Z,3.10
2018-12-12T21:39:47.704Z,3.10
2018-12-12T21:42:15.220Z,3.00
2018-12-12T21:44:42.704Z,3.00
2018-12-12T21:47:10.268Z,3.00
2018-12-12T21:49:37.984Z,2.90
2018-12-12T21:52:05.493Z,2.90
2018-12-12T21:54:32.991Z,2.90
2018-12-12T21:57:00.531Z,2.90
2018-12-12T21:59:28.100Z,2.90
2018-12-12T22:01:55.595Z,2.80
2018-12-12T22:04:23.103Z,2.70
2018-12-12T22:06:50.607Z,2.80
2018-12-12T22:09:18.104Z,2.80
2018-12-12T22:11:45.652Z,2.80
2018-12-12T22:14:13.139Z,2.70
2018-12-12T22:16:40.655Z,2.70
2018-12-12T22:19:08.159Z,2.70
2018-12-12T22:21:35.657Z,2.70
2018-12-12T22:24:03.141Z,2.70
2018-12-12T22:26:30.656Z,2.70
2018-12-12T22:28:58.136Z,2.60
2018-12-12T22:31:25.651Z,2.60
2018-12-12T22:33:53.164Z,2.60
2018-12-12T22:36:20.671Z,2.60
2018-12-12T22:38:48.165Z,2.50
2018-12-12T22:41:15.808Z,2.60
2018-12-12T22:43:43.300Z,2.50
2018-12-12T22:46:10.804Z,2.50
2018-12-12T22:48:38.364Z,2.50
2018-12-12T22:51:05.858Z,2.50
2018-12-12T22:53:33.354Z,2.50
2018-12-12T22:56:00.895Z,2.50
2018-12-12T22:58:28.407Z,2.40
2018-12-12T23:00:59.670Z,2.40
2018-12-12T23:03:27.211Z,2.40
2018-12-12T23:05:54.728Z,2.40
2018-12-12T23:08:22.308Z,2.40
2018-12-12T23:10:49.955Z,2.40
2018-12-12T23:13:17.442Z,2.40
2018-12-12T23:15:44.939Z,2.40
2018-12-12T23:18:12.461Z,2.30
2018-12-12T23:20:39.989Z,2.30
2018-12-12T23:23:07.475Z,2.30
2018-12-12T23:25:34.996Z,2.30
2018-12-12T23:28:02.499Z,2.30
2018-12-12T23:30:30.018Z,2.30
2018-12-12T23:32:57.557Z,2.20
2018-12-12T23:35:25.048Z,2.20
2018-12-12T23:37:52.551Z,2.30
2018-12-12T23:40:20.169Z,2.20
2018-12-12T23:42:47.656Z,2.20
2018-12-12T23:45:15.183Z,2.20
2018-12-12T23:47:42.702Z,2.20
2018-12-12T23:50:10.212Z,2.20
2018-12-12T23:52:37.704Z,2.20
2018-12-12T23:55:05.379Z,2.20
2018-12-12T23:57:32.884Z,2.10
